• Join FlightAware (Why Join?)
  • Login
  • US Flag 
06:38PM EDT


 

Airport Tracker/Info


-or-


 

Live Flight TrackerFlight Track Log ✈ SWA655 ✈ 13-May-2013 ✈ KSNA - KOAK

Flight Track Log - Related Links

Times and Time Zones

All times are in EDT time to prevent confusion due to time zone crossing. See the SWA655 flight status page for this flight to view local times or setup timezone preferences in your user account.

Time Position Orientation Groundspeed Altitude Reporting Facility
EDT Latitude Longitude Course Direction KTS MPH feet Rate Location/Type
02:24PM 33.6525 -117.8817 320° Northwest 142 163 38,000  Level Los Angeles Center
02:25PM 33.6081 -117.8950 194° South 157 181 2,600 -16,920 Descending Los Angeles Center
02:26PM 33.5600 -117.9036 188° South 167 192 3,100 1,260 Climbing Los Angeles Center
02:27PM 33.5106 -117.9536 220° Southwest 228 262 5,300 2,880 Climbing Los Angeles Center
02:28PM 33.4856 -118.0417 251° West 261 300 9,100 3,060 Climbing Los Angeles Center
02:29PM 34.0649 -118.2616 320° Northwest  Level Estimated
02:29PM 33.4572 -118.1378 251° West 294 338 11,700  Level Los Angeles Center
02:30PM 33.4247 -118.2483 251° West 341 392 15,300 3,120 Climbing Los Angeles Center
02:31PM 33.4206 -118.3689 268° West 375 432 18,200 2,400 Climbing Los Angeles Center
02:32PM 33.5347 -118.4236 338° Northwest 391 450 20,300 2,160 Climbing Los Angeles Center
02:33PM 33.6472 -118.4264 359° North 401 461 22,700 1,740 Climbing Los Angeles Center
02:34PM 33.7706 -118.4303 358° North 423 487 24,000 1,200 Climbing Los Angeles Center
02:35PM 33.8917 -118.4328 359° North 426 490 25,300 1,740 Climbing Los Angeles Center
02:36PM 34.0072 -118.4689 345° North 436 502 27,600 1,260 Climbing Los Angeles Center
02:37PM 34.1203 -118.5247 338° Northwest 442 509 28,000 180 Climbing Los Angeles Center
02:38PM 34.2342 -118.5806 338° Northwest 442 509 28,000 720 Level Los Angeles Center
02:39PM 34.3706 -118.6483 338° Northwest 443 510 29,500 1,620 Climbing Los Angeles Center
02:40PM 34.4878 -118.7042 339° North 449 517 31,400 1,920 Climbing Los Angeles Center
02:41PM 34.6033 -118.7611 338° Northwest 451 519 33,500 1,800 Climbing Los Angeles Center
02:42PM 34.7186 -118.8203 337° Northwest 451 519 35,200 1,500 Climbing Los Angeles Center
02:43PM 34.8306 -118.8875 334° Northwest 448 516 36,600 1,320 Climbing Los Angeles Center
02:44PM 34.9314 -118.9864 321° Northwest 449 517 38,000 660 Climbing Los Angeles Center
02:45PM 35.0275 -119.0806 321° Northwest 446 513 38,000  Level Los Angeles Center
02:46PM 35.1444 -119.1928 322° Northwest 446 513 38,000  Level Los Angeles Center
02:48PM 35.2594 -119.3050 321° Northwest 442 509 38,000  Level Los Angeles Center
02:49PM 35.3539 -119.3997 321° Northwest 438 504 38,000  Level Los Angeles Center
02:50PM 35.4489 -119.4931 321° Northwest 438 504 38,000  Level Los Angeles Center
02:51PM 35.5439 -119.5886 321° Northwest 441 507 38,000  Level Los Angeles Center
02:52PM 35.6567 -119.6997 321° Northwest 437 503 38,000  Level Los Angeles Center
02:53PM 35.7497 -119.7931 321° Northwest 441 507 38,000  Level Oakland Center
02:54PM 35.8447 -119.8897 320° Northwest 446 513 38,000  Level Oakland Center
02:55PM 35.9389 -119.9853 321° Northwest 445 512 38,000  Level Oakland Center
02:56PM 36.0336 -120.0794 321° Northwest 439 505 38,000  Level Oakland Center
02:57PM 36.1283 -120.1747 321° Northwest 442 509 38,000 -1,380 Level Oakland Center
02:58PM 36.2447 -120.2928 321° Northwest 453 521 35,200 -2,700 Descending Oakland Center
02:59PM 36.3453 -120.3967 320° Northwest 470 541 32,500 -2,640 Descending Oakland Center
03:00PM 36.4431 -120.4997 320° Northwest 464 534 29,800 -2,340 Descending Oakland Center
03:01PM 36.5375 -120.5983 320° Northwest 447 514 27,800 -1,980 Descending Oakland Center
03:02PM 36.6286 -120.6894 321° Northwest 423 487 25,800 -1,920 Descending Oakland Center
03:03PM 36.7144 -120.7797 320° Northwest 406 467 23,900 -1,860 Descending Oakland Center
03:04PM 36.7950 -120.8708 318° Northwest 396 456 22,100 -1,800 Descending Oakland Center
03:05PM 36.8750 -120.9617 318° Northwest 376 433 20,300 -1,740 Descending Oakland Center
03:06PM 36.9475 -121.0444 318° Northwest 360 414 18,600 -1,620 Descending Oakland Center
03:07PM 37.0181 -121.1231 318° Northwest 346 398 17,000 -1,680 Descending Oakland Center
03:08PM 37.0850 -121.2053 316° Northwest 339 390 15,200 -1,860 Descending Oakland Center
03:09PM 37.1675 -121.2975 318° Northwest 331 381 13,300 -1,980 Descending Oakland Center
03:10PM 37.2342 -121.3753 317° Northwest 327 376 11,200 -1,680 Descending Oakland Center
03:11PM 37.3008 -121.4539 317° Northwest 327 376 9,900 -1,320 Descending Oakland Center
03:12PM 37.3597 -121.5233 317° Northwest 298 343 8,600 -1,260 Descending Oakland Center
03:13PM 37.4333 -121.6167 315° West 293 337 7,200 -1,080 Descending Northern Cal TRACON
03:14PM 37.4833 -121.6833 313° West 280 322 6,300 -660 Descending Northern Cal TRACON
03:15PM 37.5000 -121.7667 284° West 242 278 5,900 -660 Descending Northern Cal TRACON
03:16PM 37.5333 -121.8500 297° West 229 264 5,100 -540 Descending Northern Cal TRACON
03:17PM 37.5500 -121.9167 288° West 211 243 4,900 -660 Descending Northern Cal TRACON
03:18PM 37.5833 -121.9833 302° West 221 254 3,800 -900 Descending Northern Cal TRACON
03:19PM 37.6000 -122.0500 288° West 217 250 3,200 -900 Descending Northern Cal TRACON
03:20PM 37.6333 -122.1167 302° West 202 232 2,000 -1,020 Descending Northern Cal TRACON
03:21PM 37.6650 -122.1589 313° West 193 222 1,200 -840 Descending Oakland Center
03:22PM 37.6889 -122.1953 310° West 161 185 400 9,120 Descending Oakland Center
03:23PM 37.7111 -122.2281 311° West 139 160 20,000 18,960 Climbing Oakland Center
03:26PM 37.7167 -122.2167 270° West  Level FlightAware Approximate